Time;durP1;ratioP1;P1;durP2;ratioP2;P2;SDS_P1;SDS_P2;PMS_P1;PMS_P2;Temp;Humidity;BMP_temperature;BMP_pressure;BME280_temperature;BME280_humidity;BME280_pressure;Samples;Min_cycle;Max_cycle;Signal;HPM_P1;HPM_P2
2023/06/20 00:00:25;;;;;;;11.10;7.93;;;;;;;22.38;86.37;98422.97;4970142;28;20260;-63
2023/06/20 00:02:51;;;;;;;10.37;7.60;;;;;;;22.26;88.90;98426.44;4973174;28;20227;-63
2023/06/20 00:05:23;;;;;;;10.10;7.63;;;;;;;22.15;92.08;98443.25;4971179;28;20733;-63
2023/06/20 00:07:49;;;;;;;10.48;7.75;;;;;;;22.00;93.42;98449.00;4976372;28;20862;-63
2023/06/20 00:10:20;;;;;;;11.10;8.00;;;;;;;21.90;95.79;98443.44;4970719;28;20327;-63
2023/06/20 00:12:47;;;;;;;9.67;7.90;;;;;;;21.77;97.63;98455.09;4976528;28;20294;-63
2023/06/20 00:15:13;;;;;;;12.10;8.20;;;;;;;21.68;98.24;98460.72;4969494;28;20702;-63
2023/06/20 00:17:41;;;;;;;10.73;7.97;;;;;;;21.66;96.57;98457.50;4974979;28;20322;-63
2023/06/20 00:20:09;;;;;;;11.93;8.53;;;;;;;21.63;97.77;98444.66;4972476;28;20269;-64
2023/06/20 00:22:36;;;;;;;10.37;9.20;;;;;;;21.58;99.98;98439.19;4974835;28;20683;-64
2023/06/20 00:25:03;;;;;;;11.67;8.73;;;;;;;21.48;100.00;98426.50;4974115;28;20219;-64
2023/06/20 00:27:30;;;;;;;10.43;8.60;;;;;;;21.34;100.00;98417.88;4972936;28;20238;-64
2023/06/20 00:29:57;;;;;;;13.30;9.00;;;;;;;21.13;100.00;98410.44;4971253;28;20233;-64
2023/06/20 00:32:23;;;;;;;9.50;8.50;;;;;;;21.05;100.00;98407.06;4971001;28;20290;-64
2023/06/20 00:34:53;;;;;;;10.30;8.27;;;;;;;20.90;100.00;98404.00;4974691;28;20238;-64
2023/06/20 00:37:19;;;;;;;9.77;8.77;;;;;;;20.85;100.00;98409.97;4966863;28;20248;-64
2023/06/20 00:39:46;;;;;;;10.47;9.37;;;;;;;20.78;100.00;98409.22;4972420;28;20237;-64
2023/06/20 00:42:19;;;;;;;10.33;9.13;;;;;;;20.75;100.00;98415.78;4973834;28;21020;-64
2023/06/20 00:44:46;;;;;;;10.77;9.67;;;;;;;20.62;100.00;98413.28;4977249;28;20226;-64
2023/06/20 00:47:16;;;;;;;10.00;9.00;;;;;;;20.59;100.00;98406.59;4972764;28;20236;-64
2023/06/20 00:49:43;;;;;;;10.53;9.43;;;;;;;20.57;100.00;98405.19;4975591;28;20245;-64
2023/06/20 00:52:13;;;;;;;10.53;9.53;;;;;;;20.52;100.00;98394.41;4972931;28;20239;-64
2023/06/20 00:54:40;;;;;;;11.40;8.90;;;;;;;20.42;100.00;98387.00;4976474;28;20707;-64
2023/06/20 00:57:06;;;;;;;9.43;8.53;;;;;;;20.39;100.00;98385.59;4972379;28;20308;-64
2023/06/20 00:59:33;;;;;;;10.33;8.67;;;;;;;20.32;100.00;98390.13;4973659;28;20237;-64
2023/06/20 01:01:59;;;;;;;9.90;8.90;;;;;;;20.23;100.00;98386.16;4974386;28;20250;-64
2023/06/20 01:04:26;;;;;;;11.67;9.60;;;;;;;20.20;100.00;98396.16;4975606;28;20226;-64
2023/06/20 01:07:00;;;;;;;9.80;8.80;;;;;;;20.13;100.00;98399.94;4983976;28;20239;-64
2023/06/20 01:09:36;;;;;;;12.10;8.80;;;;;;;20.09;100.00;98386.31;4972522;28;20232;-64
2023/06/20 01:12:09;;;;;;;10.73;9.50;;;;;;;20.04;100.00;98372.91;4972827;28;20235;-64
2023/06/20 01:14:46;;;;;;;10.47;9.37;;;;;;;19.98;100.00;98365.84;4976308;28;20227;-64
2023/06/20 01:17:28;;;;;;;11.70;8.50;;;;;;;19.92;100.00;98372.81;4972179;28;20240;-64
2023/06/20 01:20:04;;;;;;;9.93;8.93;;;;;;;19.83;100.00;98366.97;4975691;28;20693;-64
2023/06/20 01:22:45;;;;;;;10.30;8.67;;;;;;;19.81;100.00;98363.72;4972107;28;20242;-64
2023/06/20 01:25:23;;;;;;;10.20;9.10;;;;;;;19.77;100.00;98365.19;4969515;28;20236;-64
2023/06/20 01:27:59;;;;;;;10.10;8.70;;;;;;;19.77;100.00;98362.53;4973732;28;20228;-64
2023/06/20 01:30:34;;;;;;;9.57;8.57;;;;;;;19.74;100.00;98350.50;4971454;28;20243;-64
2023/06/20 01:33:04;;;;;;;10.43;8.63;;;;;;;19.76;100.00;98345.00;4971719;28;20232;-64
2023/06/20 01:35:34;;;;;;;10.50;8.57;;;;;;;19.75;100.00;98343.41;4976840;28;20226;-64
2023/06/20 01:38:07;;;;;;;10.10;8.23;;;;;;;19.77;100.00;98341.34;4971284;28;20229;-64
2023/06/20 01:40:36;;;;;;;9.77;8.80;;;;;;;19.82;100.00;98340.69;4975322;28;20577;-64
2023/06/20 01:43:05;;;;;;;10.43;9.13;;;;;;;19.83;100.00;98342.28;4970417;28;20289;-64
2023/06/20 01:45:36;;;;;;;9.60;8.67;;;;;;;19.83;100.00;98343.13;4973780;28;20632;-64
2023/06/20 01:48:06;;;;;;;10.07;8.43;;;;;;;19.90;100.00;98346.53;4969314;28;20236;-64
2023/06/20 01:50:33;;;;;;;10.37;8.33;;;;;;;19.89;100.00;98341.47;4973563;28;20634;-64
2023/06/20 01:53:03;;;;;;;12.20;8.50;;;;;;;19.92;100.00;98338.38;4970035;28;20234;-64
2023/06/20 01:55:32;;;;;;;10.73;9.00;;;;;;;19.97;100.00;98335.88;4972760;28;20260;-64
2023/06/20 01:58:00;;;;;;;10.83;8.87;;;;;;;19.92;100.00;98335.72;4972937;28;20242;-64
2023/06/20 02:00:28;;;;;;;10.63;8.80;;;;;;;19.88;100.00;98339.81;4972058;28;20644;-64
2023/06/20 02:02:57;;;;;;;9.43;8.43;;;;;;;19.81;100.00;98331.94;4975182;28;20233;-64
2023/06/20 02:05:27;;;;;;;10.70;9.17;;;;;;;19.75;100.00;98341.53;4971805;28;20240;-64
2023/06/20 02:07:55;;;;;;;9.90;8.93;;;;;;;19.58;100.00;98337.84;4974919;28;20727;-64
2023/06/20 02:10:26;;;;;;;10.50;9.43;;;;;;;19.49;100.00;98324.06;4973402;28;20598;-64
2023/06/20 02:12:55;;;;;;;10.33;9.27;;;;;;;19.35;100.00;98323.38;4970702;28;20626;-64
2023/06/20 02:15:26;;;;;;;10.37;9.27;;;;;;;19.23;100.00;98317.94;4982482;28;20238;-64
2023/06/20 02:17:54;;;;;;;10.20;8.97;;;;;;;19.14;100.00;98313.94;4982161;28;20295;-64
2023/06/20 02:20:23;;;;;;;11.07;8.80;;;;;;;19.02;100.00;98325.22;4969150;28;20252;-64
2023/06/20 02:22:55;;;;;;;10.67;9.57;;;;;;;18.93;100.00;98326.47;4975147;28;20246;-64
2023/06/20 02:25:27;;;;;;;9.67;8.67;;;;;;;18.85;100.00;98316.13;4988594;28;20318;-64
2023/06/20 02:27:56;;;;;;;10.80;9.17;;;;;;;18.72;100.00;98322.28;4971385;28;20241;-64
2023/06/20 02:30:28;;;;;;;11.40;9.27;;;;;;;18.69;100.00;98320.91;4986835;28;20235;-64
2023/06/20 02:32:57;;;;;;;9.57;8.57;;;;;;;18.67;100.00;98319.47;4974312;28;20242;-64
2023/06/20 02:35:25;;;;;;;11.50;9.23;;;;;;;18.59;100.00;98308.13;4973021;28;20819;-64
2023/06/20 02:37:54;;;;;;;9.33;8.43;;;;;;;18.55;100.00;98311.41;4976332;28;20232;-64
2023/06/20 02:40:25;;;;;;;10.23;8.63;;;;;;;18.49;100.00;98314.88;4968370;28;20229;-64
2023/06/20 02:42:52;;;;;;;10.27;9.17;;;;;;;18.40;100.00;98314.31;4969556;28;20243;-64
2023/06/20 02:45:23;;;;;;;9.40;8.50;;;;;;;18.38;100.00;98305.78;4970600;28;20283;-64
2023/06/20 02:48:10;;;;;;;10.67;8.87;;;;;;;18.31;100.00;98299.72;4971981;28;20240;-64
2023/06/20 02:50:42;;;;;;;10.63;9.10;;;;;;;18.26;100.00;98300.34;4969158;28;20268;-64
2023/06/20 02:53:19;;;;;;;10.83;8.90;;;;;;;18.20;100.00;98302.00;4971608;28;20227;-64
2023/06/20 02:55:53;;;;;;;9.97;8.77;;;;;;;18.20;100.00;98306.44;4962778;28;20289;-64
2023/06/20 02:58:22;;;;;;;10.67;9.30;;;;;;;18.13;100.00;98303.84;4972578;28;20231;-64
2023/06/20 03:00:52;;;;;;;12.17;8.97;;;;;;;18.12;100.00;98300.38;4969107;28;20235;-64
2023/06/20 03:03:24;;;;;;;11.10;8.77;;;;;;;18.10;100.00;98302.41;4973921;28;20705;-64
2023/06/20 03:05:56;;;;;;;9.47;8.43;;;;;;;18.07;100.00;98310.75;4970853;28;20241;-64
2023/06/20 03:08:27;;;;;;;9.50;8.43;;;;;;;18.05;100.00;98312.78;4972507;28;20596;-64
2023/06/20 03:10:56;;;;;;;10.40;8.57;;;;;;;18.03;100.00;98303.47;4972507;28;20319;-64
2023/06/20 03:13:23;;;;;;;11.63;8.17;;;;;;;18.03;100.00;98306.09;4971997;28;20804;-64
2023/06/20 03:15:52;;;;;;;9.73;8.73;;;;;;;17.95;100.00;98309.75;4973081;28;20232;-64
2023/06/20 03:18:20;;;;;;;10.67;9.27;;;;;;;17.92;100.00;98300.41;4970451;28;20239;-64
2023/06/20 03:20:48;;;;;;;9.07;8.17;;;;;;;18.02;100.00;98310.56;4982146;28;20322;-64
2023/06/20 03:23:17;;;;;;;10.03;8.30;;;;;;;17.91;100.00;98317.25;4968543;28;20241;-64
2023/06/20 03:25:44;;;;;;;12.13;9.00;;;;;;;17.91;100.00;98319.09;4986304;28;21122;-64
2023/06/20 03:28:13;;;;;;;9.30;8.33;;;;;;;17.91;100.00;98319.09;4971947;28;20234;-64
2023/06/20 03:30:44;;;;;;;9.50;8.50;;;;;;;17.90;100.00;98328.84;5192163;23;20213;-63
2023/06/20 03:33:11;;;;;;;9.30;8.30;;;;;;;17.89;100.00;98326.41;4967545;28;20262;-63
2023/06/20 03:35:39;;;;;;;10.03;9.03;;;;;;;17.85;100.00;98337.38;4970777;28;20242;-63
2023/06/20 03:38:06;;;;;;;11.27;9.03;;;;;;;17.88;100.00;98340.63;4969081;28;20256;-63
2023/06/20 03:40:33;;;;;;;11.87;8.77;;;;;;;17.93;100.00;98339.00;4971280;28;20698;-63
2023/06/20 03:43:00;;;;;;;11.83;8.63;;;;;;;17.88;100.00;98348.56;4967665;28;20271;-63
2023/06/20 03:45:28;;;;;;;12.23;9.57;;;;;;;17.86;100.00;98354.03;4970496;28;20246;-63
2023/06/20 03:47:54;;;;;;;11.37;9.23;;;;;;;17.86;100.00;98364.59;4971384;28;20267;-63
2023/06/20 03:50:23;;;;;;;9.60;8.60;;;;;;;17.88;100.00;98364.41;4973831;28;20238;-63
2023/06/20 03:52:51;;;;;;;9.50;8.60;;;;;;;17.95;100.00;98358.09;4973850;28;20326;-63
2023/06/20 03:55:23;;;;;;;10.37;8.80;;;;;;;18.01;100.00;98369.69;4969118;28;20231;-63
2023/06/20 03:57:50;;;;;;;10.93;9.60;;;;;;;18.03;100.00;98370.28;4972982;28;20249;-63
2023/06/20 04:00:43;;;;;;;10.50;9.07;;;;;;;18.06;100.00;98355.88;4971886;28;20375;-63
2023/06/20 04:03:10;;;;;;;11.00;9.17;;;;;;;18.11;100.00;98362.13;4986416;28;20231;-63
2023/06/20 04:05:36;;;;;;;12.17;8.93;;;;;;;18.15;100.00;98360.72;4971774;28;20227;-63
2023/06/20 04:08:03;;;;;;;10.98;9.80;;;;;;;18.20;100.00;98359.28;4968460;28;20457;-63
2023/06/20 04:10:29;;;;;;;10.97;9.87;;;;;;;18.19;100.00;98358.47;4969777;28;20578;-63
2023/06/20 04:12:56;;;;;;;11.67;9.67;;;;;;;18.21;100.00;98358.25;4970207;28;20239;-63
2023/06/20 04:15:23;;;;;;;9.73;8.07;;;;;;;18.23;100.00;98362.34;4972652;28;20247;-63
2023/06/20 04:17:52;;;;;;;11.83;8.97;;;;;;;18.23;100.00;98357.06;4973865;28;20232;-63
2023/06/20 04:20:23;;;;;;;12.43;9.70;;;;;;;18.24;100.00;98352.56;4977680;28;20286;-63
2023/06/20 04:22:50;;;;;;;10.30;8.97;;;;;;;18.31;100.00;98355.19;4975932;28;20730;-63
2023/06/20 04:25:24;;;;;;;9.67;8.67;;;;;;;18.32;100.00;98351.53;4974904;28;20704;-63
2023/06/20 04:27:53;;;;;;;10.73;8.40;;;;;;;18.30;100.00;98359.66;4973714;28;21061;-63
2023/06/20 04:30:26;;;;;;;10.90;9.63;;;;;;;18.27;100.00;98360.91;4972795;28;20725;-63
2023/06/20 04:32:54;;;;;;;12.53;9.43;;;;;;;18.29;100.00;98363.31;4977110;28;20239;-63
2023/06/20 04:35:23;;;;;;;12.27;9.13;;;;;;;18.29;100.00;98355.41;4972334;28;20241;-63
2023/06/20 04:37:51;;;;;;;11.40;9.13;;;;;;;18.36;100.00;98355.41;4975863;28;20237;-63
2023/06/20 04:40:26;;;;;;;13.93;9.07;;;;;;;18.34;100.00;98366.16;4972314;28;20323;-64
2023/06/20 04:42:53;;;;;;;14.20;10.23;;;;;;;18.38;100.00;98356.00;4974644;28;20314;-64
2023/06/20 04:45:23;;;;;;;18.03;10.93;;;;;;;18.41;100.00;98366.94;4970899;28;20713;-64
2023/06/20 04:47:51;;;;;;;13.00;9.53;;;;;;;18.47;100.00;98364.50;4973847;28;20229;-64
2023/06/20 04:50:26;;;;;;;12.50;9.73;;;;;;;18.48;100.00;98360.84;4973974;28;20703;-64
2023/06/20 04:52:53;;;;;;;11.07;8.90;;;;;;;18.47;100.00;98361.84;4974925;28;20246;-64
2023/06/20 04:55:23;;;;;;;11.23;8.83;;;;;;;18.50;100.00;98364.06;4970428;28;20301;-64
2023/06/20 04:57:54;;;;;;;10.37;8.93;;;;;;;18.54;100.00;98363.47;4976412;28;20230;-64
2023/06/20 05:00:23;;;;;;;10.87;9.20;;;;;;;18.61;100.00;98354.66;4988907;28;20321;-64
2023/06/20 05:02:50;;;;;;;16.43;9.43;;;;;;;18.72;100.00;98361.94;4977236;28;20267;-64
2023/06/20 05:05:29;;;;;;;11.27;9.67;;;;;;;18.74;100.00;98360.72;4970556;28;20283;-64
2023/06/20 05:07:56;;;;;;;9.80;8.80;;;;;;;18.79;100.00;98364.56;4972657;28;20708;-64
2023/06/20 05:10:23;;;;;;;12.87;10.27;;;;;;;18.86;100.00;98363.50;4972725;28;20247;-64
2023/06/20 05:12:52;;;;;;;10.97;9.40;;;;;;;18.93;100.00;98374.06;4978195;28;20315;-64
2023/06/20 05:15:24;;;;;;;12.80;10.33;;;;;;;19.01;100.00;98378.31;4974457;28;20255;-64
2023/06/20 05:17:51;;;;;;;18.17;11.03;;;;;;;19.08;100.00;98375.66;4978890;28;20239;-64
2023/06/20 05:20:24;;;;;;;16.50;11.40;;;;;;;19.13;100.00;98365.22;4977469;28;20234;-64
2023/06/20 05:22:51;;;;;;;13.33;10.77;;;;;;;19.20;100.00;98373.94;4975349;28;20268;-64
2023/06/20 05:25:23;;;;;;;11.37;9.90;;;;;;;19.27;100.00;98377.34;4975639;28;20231;-64
2023/06/20 05:27:49;;;;;;;18.83;11.00;;;;;;;19.31;100.00;98375.09;4975921;28;20232;-64
2023/06/20 05:30:41;;;;;;;14.30;11.27;;;;;;;19.37;100.00;98381.34;4974616;28;20363;-64
2023/06/20 05:33:08;;;;;;;12.10;10.27;;;;;;;19.43;100.00;98377.84;4971713;28;20286;-64
2023/06/20 05:35:36;;;;;;;11.00;9.87;;;;;;;19.49;100.00;98382.28;4977000;28;20722;-64
2023/06/20 05:38:03;;;;;;;11.67;10.03;;;;;;;19.59;100.00;98379.97;4971660;28;20297;-64
2023/06/20 05:40:30;;;;;;;14.03;11.20;;;;;;;19.84;100.00;98381.00;4973821;28;20238;-64
2023/06/20 05:42:56;;;;;;;13.23;10.77;;;;;;;20.23;100.00;98379.03;4973099;28;20282;-64
2023/06/20 05:45:23;;;;;;;12.60;10.03;;;;;;;20.61;100.00;98380.66;4970274;28;20716;-64
2023/06/20 05:47:49;;;;;;;13.63;9.40;;;;;;;20.84;97.42;98378.38;4973299;28;20233;-64
2023/06/20 05:50:42;;;;;;;11.07;9.50;;;;;;;21.04;97.42;98386.06;4974579;28;20243;-64
2023/06/20 05:53:09;;;;;;;10.73;9.10;;;;;;;21.13;95.90;98374.09;4974123;28;20221;-64
2023/06/20 05:55:35;;;;;;;11.03;9.53;;;;;;;21.16;95.10;98378.16;4974128;28;20308;-64
2023/06/20 05:58:02;;;;;;;12.67;9.33;;;;;;;21.31;94.90;98381.16;4973914;28;20309;-64
2023/06/20 06:00:31;;;;;;;12.07;9.67;;;;;;;21.41;93.27;98383.28;4975873;28;20225;-64
2023/06/20 06:02:59;;;;;;;12.97;10.23;;;;;;;21.50;93.08;98379.28;4978508;28;20760;-64
2023/06/20 06:05:26;;;;;;;11.30;10.13;;;;;;;21.67;91.65;98373.31;4975083;28;20238;-64
2023/06/20 06:07:54;;;;;;;9.43;8.53;;;;;;;21.79;91.59;98371.47;4974025;28;20254;-64
2023/06/20 06:10:25;;;;;;;9.17;8.27;;;;;;;21.93;89.37;98368.56;4970284;28;20286;-64
2023/06/20 06:12:51;;;;;;;9.53;8.60;;;;;;;22.05;87.20;98364.06;4974107;28;20297;-64
2023/06/20 06:15:23;;;;;;;8.93;7.93;;;;;;;22.24;87.34;98359.44;4973433;28;20231;-64
2023/06/20 06:17:49;;;;;;;10.87;8.10;;;;;;;22.39;84.34;98371.41;4971528;28;20227;-64
2023/06/20 06:20:23;;;;;;;9.77;8.17;;;;;;;22.62;81.72;98372.44;4972675;28;20285;-64
2023/06/20 06:22:50;;;;;;;10.47;9.00;;;;;;;22.81;81.51;98365.06;4973207;28;20241;-64
2023/06/20 06:25:24;;;;;;;10.67;8.70;;;;;;;23.05;81.18;98360.47;4969124;28;20234;-64
2023/06/20 06:27:51;;;;;;;10.57;7.37;;;;;;;23.13;71.49;98368.06;4970315;28;20231;-64
2023/06/20 06:30:23;;;;;;;8.30;7.43;;;;;;;23.41;72.54;98366.41;4972896;28;20238;-64
2023/06/20 06:32:49;;;;;;;9.77;6.87;;;;;;;23.59;67.41;98356.59;4976574;28;20239;-64
2023/06/20 06:35:41;;;;;;;8.53;6.53;;;;;;;23.79;64.57;98361.44;4971447;28;20231;-64
2023/06/20 06:38:08;;;;;;;8.47;6.60;;;;;;;24.05;65.45;98371.69;4972870;28;20235;-64
2023/06/20 06:40:36;;;;;;;9.10;6.77;;;;;;;24.21;66.84;98362.84;4974211;28;20243;-64
2023/06/20 06:43:03;;;;;;;9.07;8.17;;;;;;;24.34;69.59;98363.53;4970259;28;20232;-64
2023/06/20 06:45:30;;;;;;;8.87;7.43;;;;;;;24.23;68.23;98368.72;4983329;28;20229;-64
2023/06/20 06:47:56;;;;;;;12.57;8.90;;;;;;;24.26;71.31;98360.25;4972475;28;20301;-64
2023/06/20 06:50:23;;;;;;;10.30;8.13;;;;;;;24.32;70.02;98359.25;4972532;28;20285;-64
2023/06/20 06:52:49;;;;;;;7.90;7.10;;;;;;;24.44;67.69;98360.97;4975316;28;20240;-65
2023/06/20 06:55:47;;;;;;;9.77;8.77;;;;;;;24.47;69.57;98353.28;4969337;28;20708;-63
2023/06/20 06:58:13;;;;;;;12.70;8.70;;;;;;;24.47;68.74;98368.47;4971890;28;20693;-63
2023/06/20 07:00:40;;;;;;;8.97;7.20;;;;;;;24.58;64.08;98359.53;4974984;28;20231;-64
2023/06/20 07:03:08;;;;;;;8.43;7.30;;;;;;;24.59;66.21;98365.69;4971052;28;20240;-64
2023/06/20 07:05:34;;;;;;;9.73;7.90;;;;;;;24.82;67.49;98364.63;4972086;28;20240;-64
2023/06/20 07:08:01;;;;;;;13.30;8.50;;;;;;;25.00;67.53;98374.16;4973153;28;20236;-64
2023/06/20 07:10:27;;;;;;;8.03;7.20;;;;;;;25.19;63.53;98363.94;4975757;28;20232;-64
2023/06/20 07:12:55;;;;;;;10.67;7.80;;;;;;;25.35;65.41;98369.41;4972373;28;20230;-64
2023/06/20 07:15:23;;;;;;;9.60;8.03;;;;;;;25.50;66.01;98371.44;4970576;28;20858;-64
2023/06/20 07:17:50;;;;;;;10.53;8.20;;;;;;;25.72;63.11;98370.53;4975639;28;20228;-64
2023/06/20 07:20:41;;;;;;;10.73;7.47;;;;;;;25.75;61.47;98381.50;4967649;28;20239;-64
2023/06/20 07:23:07;;;;;;;10.87;7.73;;;;;;;25.73;61.22;98366.78;4973347;28;20232;-64
2023/06/20 07:25:34;;;;;;;8.63;7.20;;;;;;;25.68;61.31;98380.91;4973329;28;20236;-64
2023/06/20 07:28:02;;;;;;;10.93;7.40;;;;;;;25.82;61.74;98375.94;4974190;28;20233;-64
2023/06/20 07:30:29;;;;;;;8.20;7.17;;;;;;;25.93;60.90;98372.28;4988880;28;20894;-64
2023/06/20 07:32:55;;;;;;;7.40;6.60;;;;;;;26.04;59.04;98383.81;4973614;28;20246;-65
2023/06/20 07:35:23;;;;;;;9.30;7.60;;;;;;;26.01;59.78;98376.31;4970566;28;20230;-65
2023/06/20 07:37:50;;;;;;;9.27;7.00;;;;;;;25.99;60.57;98382.97;4973887;28;20231;-65
2023/06/20 07:40:23;;;;;;;10.27;6.43;;;;;;;26.20;55.42;98379.38;4968500;28;20289;-66
2023/06/20 07:42:50;;;;;;;8.87;7.27;;;;;;;26.32;59.30;98384.53;4974776;28;20348;-66
2023/06/20 07:45:42;;;;;;;9.20;7.33;;;;;;;26.41;57.71;98387.50;4969842;28;20235;-65
2023/06/20 07:48:09;;;;;;;9.43;7.37;;;;;;;26.48;57.91;98380.06;4967512;28;20237;-65
2023/06/20 07:50:35;;;;;;;9.17;7.67;;;;;;;26.65;56.48;98377.16;4972796;28;20253;-65
2023/06/20 07:53:02;;;;;;;9.43;7.53;;;;;;;26.92;55.93;98376.19;4975234;28;20244;-65
2023/06/20 07:55:29;;;;;;;8.10;6.60;;;;;;;27.05;55.50;98376.75;4976617;28;20923;-65
2023/06/20 07:57:56;;;;;;;11.43;6.90;;;;;;;26.98;54.14;98373.53;4978517;28;20235;-65
2023/06/20 08:00:24;;;;;;;7.23;6.50;;;;;;;27.19;53.54;98377.84;4974934;28;20232;-65
2023/06/20 08:02:52;;;;;;;8.77;6.60;;;;;;;27.21;53.31;98377.56;4968485;28;20235;-65
2023/06/20 08:05:23;;;;;;;8.82;6.07;;;;;;;27.19;53.85;98377.03;4975909;28;20231;-66
2023/06/20 08:07:50;;;;;;;6.70;6.03;;;;;;;26.86;53.36;98376.47;4991252;28;20229;-65
2023/06/20 08:10:20;;;;;;;13.30;7.23;;;;;;;26.93;54.34;98372.44;4975798;28;20733;-65
2023/06/20 08:12:47;;;;;;;8.13;6.37;;;;;;;27.15;54.30;98373.28;4979958;28;20243;-65
2023/06/20 08:15:13;;;;;;;7.80;6.43;;;;;;;27.04;54.26;98361.75;4975736;28;20235;-65
2023/06/20 08:17:40;;;;;;;7.80;5.72;;;;;;;27.02;50.31;98369.25;4977266;28;20717;-65
2023/06/20 08:20:09;;;;;;;7.83;6.00;;;;;;;27.24;48.69;98359.09;4973122;28;20595;-66
2023/06/20 08:22:36;;;;;;;8.63;5.80;;;;;;;27.38;48.93;98375.44;4976411;28;20614;-65
2023/06/20 08:25:02;;;;;;;7.33;6.00;;;;;;;27.29;48.07;98376.25;4971500;28;20228;-67
2023/06/20 08:27:29;;;;;;;9.40;5.93;;;;;;;27.31;46.44;98368.75;4975527;28;20311;-66
2023/06/20 08:29:56;;;;;;;6.83;5.60;;;;;;;27.30;44.91;98373.28;4977392;28;20225;-66
2023/06/20 08:32:22;;;;;;;7.60;5.28;;;;;;;27.29;45.22;98368.22;4974416;28;20235;-66
2023/06/20 08:34:49;;;;;;;9.67;5.40;;;;;;;27.22;46.37;98358.56;4975931;28;20259;-64
2023/06/20 08:37:17;;;;;;;7.80;5.47;;;;;;;27.47;44.49;98364.19;4974249;28;20252;-64
2023/06/20 08:39:44;;;;;;;7.50;5.30;;;;;;;27.36;43.40;98358.03;4976055;28;20310;-64
2023/06/20 08:42:11;;;;;;;9.03;5.40;;;;;;;27.32;44.32;98356.97;4973270;28;20745;-65
2023/06/20 08:44:38;;;;;;;6.73;5.50;;;;;;;27.50;44.48;98352.97;4979829;28;20302;-65
2023/06/20 08:47:05;;;;;;;7.57;5.97;;;;;;;27.38;46.41;98350.53;4970265;28;20297;-65
2023/06/20 08:49:32;;;;;;;8.00;5.83;;;;;;;27.45;44.71;98343.03;4976234;28;20230;-66
2023/06/20 08:52:04;;;;;;;12.17;5.97;;;;;;;27.53;45.63;98347.06;4972929;28;20235;-66
2023/06/20 08:54:39;;;;;;;8.55;5.68;;;;;;;27.81;44.23;98352.94;4974711;28;20238;-66
2023/06/20 08:57:07;;;;;;;10.73;5.75;;;;;;;27.85;43.99;98337.91;4972527;28;20264;-66
2023/06/20 08:59:35;;;;;;;8.48;5.57;;;;;;;27.70;45.27;98342.22;4975764;28;20309;-66
2023/06/20 09:02:01;;;;;;;6.72;5.43;;;;;;;27.90;44.17;98347.81;4972912;28;20239;-66
2023/06/20 09:04:28;;;;;;;7.60;5.82;;;;;;;27.89;43.08;98335.47;4976948;28;20601;-66
2023/06/20 09:06:55;;;;;;;6.43;5.43;;;;;;;28.09;42.65;98331.94;4975911;28;20241;-66
2023/06/20 09:09:22;;;;;;;8.63;5.97;;;;;;;28.24;42.96;98339.94;4971769;28;20240;-66
2023/06/20 09:11:55;;;;;;;9.87;5.73;;;;;;;27.97;43.66;98340.28;4977755;28;20243;-66
2023/06/20 09:14:25;;;;;;;6.97;6.13;;;;;;;28.13;43.21;98339.19;4970042;28;20233;-66
2023/06/20 09:16:52;;;;;;;8.48;5.18;;;;;;;28.14;43.99;98340.78;4974348;28;20321;-66
2023/06/20 09:19:19;;;;;;;6.40;5.15;;;;;;;28.28;43.08;98341.00;4973192;28;20235;-66
2023/06/20 09:21:45;;;;;;;9.70;5.82;;;;;;;28.18;43.64;98335.66;4978033;28;20298;-66
2023/06/20 09:24:17;;;;;;;8.80;5.87;;;;;;;28.42;42.88;98345.78;4972271;28;20286;-66
2023/06/20 09:26:44;;;;;;;8.68;5.90;;;;;;;28.40;42.96;98343.38;4975703;28;20241;-66
2023/06/20 09:29:14;;;;;;;8.55;6.13;;;;;;;28.45;43.53;98337.16;4971723;28;20324;-66
2023/06/20 09:31:42;;;;;;;9.50;5.65;;;;;;;28.32;44.03;98335.91;4973415;28;20293;-66
2023/06/20 09:34:13;;;;;;;8.07;5.60;;;;;;;28.50;41.25;98336.34;4976166;28;20240;-66
2023/06/20 09:36:40;;;;;;;8.48;5.50;;;;;;;28.56;42.61;98336.03;4978424;28;20260;-66
2023/06/20 09:39:10;;;;;;;8.30;5.30;;;;;;;28.66;42.10;98337.06;4974971;28;20270;-66
2023/06/20 09:41:37;;;;;;;8.43;5.30;;;;;;;28.66;40.61;98337.84;4973870;28;20240;-66
2023/06/20 09:44:03;;;;;;;14.75;5.85;;;;;;;28.68;40.82;98342.97;4974296;28;20239;-66
2023/06/20 09:46:31;;;;;;;6.50;5.80;;;;;;;28.57;42.09;98347.59;4972351;28;20295;-66
2023/06/20 09:48:58;;;;;;;6.97;5.80;;;;;;;28.89;41.38;98345.56;4971726;28;20282;-66
2023/06/20 09:51:27;;;;;;;9.65;6.15;;;;;;;29.04;40.09;98353.53;4972571;28;20240;-66
2023/06/20 09:53:59;;;;;;;6.38;5.60;;;;;;;29.06;41.07;98353.22;4976782;28;20235;-66
2023/06/20 09:56:29;;;;;;;7.38;5.38;;;;;;;29.16;40.03;98350.47;4973305;28;20239;-66
2023/06/20 09:58:58;;;;;;;8.88;6.03;;;;;;;29.23;40.01;98348.25;4975852;28;20239;-66
2023/06/20 10:01:27;;;;;;;10.20;5.88;;;;;;;28.98;41.23;98352.75;4976294;28;20241;-66
2023/06/20 10:03:55;;;;;;;11.30;5.82;;;;;;;28.87;41.03;98353.88;4974927;28;20249;-66
2023/06/20 10:06:23;;;;;;;8.73;6.20;;;;;;;28.89;40.60;98353.63;4972770;28;20325;-66
2023/06/20 10:08:51;;;;;;;6.72;5.43;;;;;;;28.88;40.71;98339.38;4974374;28;20286;-66
2023/06/20 10:11:18;;;;;;;9.82;6.45;;;;;;;29.10;40.62;98354.28;4969769;28;20250;-66
2023/06/20 10:13:45;;;;;;;10.13;6.20;;;;;;;28.88;41.02;98342.06;4972727;28;20625;-66
2023/06/20 10:16:12;;;;;;;8.80;6.00;;;;;;;28.91;41.63;98357.63;4972569;28;20242;-66
2023/06/20 10:18:39;;;;;;;10.23;6.50;;;;;;;29.22;40.46;98356.59;4973670;28;20261;-66
2023/06/20 10:21:08;;;;;;;6.70;6.10;;;;;;;28.91;40.83;98346.88;4972910;28;20328;-66
2023/06/20 10:23:37;;;;;;;8.82;6.38;;;;;;;29.23;41.39;98359.03;4974749;28;20247;-67
2023/06/20 10:26:07;;;;;;;8.77;6.10;;;;;;;29.58;39.12;98346.38;4974606;28;20676;-66
2023/06/20 10:28:37;;;;;;;10.75;6.43;;;;;;;29.70;39.63;98343.31;4977250;28;20308;-66
2023/06/20 10:31:03;;;;;;;9.82;5.93;;;;;;;29.68;38.90;98337.41;4968482;28;20244;-66
2023/06/20 10:33:31;;;;;;;11.52;6.30;;;;;;;29.59;39.06;98331.84;4971899;28;20236;-66
2023/06/20 10:35:59;;;;;;;10.57;6.22;;;;;;;29.49;38.32;98325.75;4973736;28;20250;-66
2023/06/20 10:38:28;;;;;;;6.28;5.65;;;;;;;29.52;38.86;98327.88;4974492;28;20299;-66
2023/06/20 10:41:12;;;;;;;6.95;6.20;;;;;;;29.81;37.92;98341.31;4975530;28;20247;-66
2023/06/20 10:44:03;;;;;;;9.65;6.28;;;;;;;29.87;37.09;98334.78;4969942;28;20281;-66
2023/06/20 10:46:47;;;;;;;8.07;6.18;;;;;;;29.89;36.78;98324.53;4958322;28;20242;-66
2023/06/20 10:49:13;;;;;;;6.93;6.15;;;;;;;29.69;37.76;98316.69;4973620;28;20235;-66
2023/06/20 10:51:44;;;;;;;7.55;5.95;;;;;;;29.98;37.20;98321.22;4973067;28;20719;-66
2023/06/20 10:54:12;;;;;;;8.80;6.53;;;;;;;30.06;37.69;98325.22;4968795;28;20232;-66
2023/06/20 10:56:39;;;;;;;9.18;6.22;;;;;;;30.12;36.89;98324.84;4972041;28;20238;-67
2023/06/20 10:59:09;;;;;;;8.57;6.55;;;;;;;30.10;38.56;98332.41;4968812;28;20695;-67
2023/06/20 11:01:36;;;;;;;8.60;6.93;;;;;;;30.28;37.36;98327.38;4971977;28;20240;-67
2023/06/20 11:04:06;;;;;;;9.60;6.18;;;;;;;30.35;37.67;98327.81;4966564;28;20234;-67
2023/06/20 11:06:33;;;;;;;14.32;6.93;;;;;;;30.34;37.74;98327.00;4975240;28;20638;-67
2023/06/20 11:09:00;;;;;;;8.40;6.40;;;;;;;30.36;36.83;98329.41;4972560;28;20228;-67
2023/06/20 11:11:37;;;;;;;9.13;5.85;;;;;;;30.58;37.95;98318.09;4975072;28;20244;-67
2023/06/20 11:14:10;;;;;;;8.90;6.00;;;;;;;30.56;36.40;98314.06;4971165;28;20245;-67
2023/06/20 11:16:38;;;;;;;6.35;5.80;;;;;;;30.64;35.74;98313.47;4970308;28;20588;-67
2023/06/20 11:19:04;;;;;;;7.05;5.43;;;;;;;30.62;35.47;98315.63;4970193;28;20279;-67
2023/06/20 11:21:31;;;;;;;11.13;6.20;;;;;;;30.64;35.21;98321.53;4973867;28;20292;-67
2023/06/20 11:23:59;;;;;;;6.68;5.80;;;;;;;30.53;35.29;98320.84;4972184;28;20248;-67
2023/06/20 11:26:29;;;;;;;6.80;5.80;;;;;;;30.69;35.46;98310.69;4973948;28;20265;-67
2023/06/20 11:28:59;;;;;;;9.48;5.63;;;;;;;30.96;35.31;98309.19;4974801;28;20233;-67
2023/06/20 11:31:26;;;;;;;7.60;6.10;;;;;;;30.82;34.40;98298.38;4970233;28;20290;-67
2023/06/20 11:34:02;;;;;;;10.55;5.90;;;;;;;31.00;34.59;98301.31;4974904;28;20782;-67